The Humdinger Half & Hurtle
10 Feb 2019

     
Select a row for extra features - Best viewed in landscape on mobile devces
Page 1 of 5 (227 items)
PosBib NoNameGun TimeChip TimeCategoryCat PosGenderGen PosClubPace
1232Toby CHAPMAN1:17:25.01:17:24.7Sen1Male1BOURNEMOUTH AC 10.2 m/hr
2207Phil THORNE1:22:10.71:22:09.8V401Male2NORTH DEVON RRC 9.6 m/hr
348Liam CULLIFORD1:22:32.21:22:31.2Sen2Male3MENDIP TRIATHLON 9.5 m/hr
466Roger EASTERBROOK1:23:59.61:23:58.0V402Male4TEIGNBRIDGE TROTTERS 9.4 m/hr
5111Ashley JACKSON1:24:50.61:24:50.2Sen3Male5SOMERSET RC TRI 9.3 m/hr
687Mark GOODRIDGE1:25:47.11:25:46.8V403Male6ROYAL NAVY TRIATHLON 9.2 m/hr
785Milan GOC1:26:00.01:25:57.9Sen4Male7SOUTH WEST ROAD RUNNERS 9.1 m/hr
859Arthur DICKSON-BELL1:26:01.81:26:01.0Sen5Male8 9.1 m/hr
9181Chris SELMAN1:26:12.01:26:10.5Sen6Male9WESTON ATHLETIC CLUB 9.1 m/hr
1067David EDWARDS1:26:40.81:26:39.8V404Male10 9.1 m/hr
11186Garry SMART1:27:14.21:27:11.9V501Male11TEIGNBRIDGE TROTTERS 9.0 m/hr
1283Rob GITTOES1:28:52.81:28:51.9Sen7Male12 8.8 m/hr
1329James BROWNING1:29:25.51:29:24.1V405Male13 8.8 m/hr
14147Liam NASH1:32:29.41:32:27.2Sen8Male14 8.5 m/hr
15240Paul THOMAS1:32:38.91:32:35.2V406Male15CREWKERNE RUNNING CLUB 8.5 m/hr
16248Josh HARRIS1:32:48.61:32:46.8V407Male16WESTON ATHLETIC CLUB 8.5 m/hr
1753Matthew DALTON1:33:34.41:33:31.7V408Male17RIVIERA RACERS 8.4 m/hr
18134Lance MASON1:34:12.31:34:09.3V502Male18TEIGNBRIDGE TROTTERS 8.3 m/hr
19140Mike MEARS1:34:28.71:34:27.9V409Male19HONITON RUNNING CLUB 8.3 m/hr
2047Nicholas CULL1:34:42.21:34:38.7Sen9Male20TORBAY TRI CLUB 8.3 m/hr
21146Scott HUNTER1:34:47.51:34:43.6Sen10Male21SOUTH WEST ROAD RUNNERS 8.3 m/hr
224Helen ANTHONY1:35:25.41:35:22.6V401Female1TEIGNBRIDGE TROTTERS 8.2 m/hr
23124Chris LOACH1:35:29.61:35:25.2V4010Male22WESTON ATHLETIC CLUB 8.2 m/hr
2474Mark FOSS1:35:50.51:35:48.7Sen11Male23HYDROGRAPHIC HARRIERS 8.2 m/hr
25247Gareth GOODWIN1:36:50.91:36:48.3V4011Male24 8.1 m/hr
26156Andrew PEARSON1:37:08.01:37:06.2V4012Male25BIDEFORD AAC 8.1 m/hr
27193Martin STAPLES1:37:11.81:37:09.3Sen12Male26 8.1 m/hr
28220Dave WHITTAKER1:37:17.21:37:13.3V4013Male27 8.1 m/hr
29113Julian JENKINS1:37:33.31:37:30.6V4014Male28 8.1 m/hr
3027Chris BROWN1:39:01.31:38:59.7Sen13Male29RUNNING FOREVER RUNNING CLUB 7.9 m/hr
3158Stuart DIAMOND1:39:46.41:39:42.0V503Male30WESTON ATHLETIC CLUB 7.9 m/hr
3226Tom BRODIE1:39:58.31:39:55.0V4015Male31RUNNING FOREVER RUNNING CLUB 7.9 m/hr
3395Christopher HAYWARD1:40:01.41:39:52.9Sen14Male32 7.9 m/hr
34178Ian SALTER1:40:21.61:40:20.3V4016Male33HYDROGRAPHIC HARRIERS 7.8 m/hr
35164Matt POWELL1:41:05.31:41:03.2V4017Male34BURNHAM ON SEA HARRIERS 7.8 m/hr
3681Liam WHYTE1:41:23.11:41:11.7Sen15Male35CHARD ROAD RUNNERS 7.8 m/hr
37238Thea SANDERS1:41:26.21:41:23.3Sen1Female2TAUNTON AC 7.7 m/hr
38143Ed MENON1:41:38.61:41:36.0Sen16Male36 7.7 m/hr
3923Dominic BOWDEN1:41:56.91:41:50.9Sen17Male37MINEHEAD RC 7.7 m/hr
40128Liz LOVELOCK1:42:14.21:42:11.2Sen2Female3WESTBURY HARRIERS 7.7 m/hr
41160Andrew PIPER1:43:01.51:42:45.3V504Male38WELLS CITY HARRIERS 7.6 m/hr
42209James MURRAY1:43:12.51:43:10.7V4018Male39BIDEFORD AAC 7.6 m/hr
4369Verity ELSTON1:43:20.41:43:17.2Sen3Female4MINEHEAD RC 7.6 m/hr
44216Carl WARD1:43:37.01:43:35.8V505Male40TAUNTON AC 7.6 m/hr
4512Neil BASIL1:43:50.91:43:36.2Sen18Male41WELLINGTON WEAVERS RUNNING CLUB 7.6 m/hr
4663Quin DRAKES1:44:13.51:44:09.8V506Male42MINEHEAD RC 7.5 m/hr
47230Mike BOSLEY1:44:22.31:44:03.3V4019Male43WELLS CITY HARRIERS 7.5 m/hr
4835Patrick CASEY1:44:25.41:44:17.7V507Male44TAUNTON AC 7.5 m/hr
49180Chris SEARLE1:44:34.71:44:24.0V508Male45WELLS CITY HARRIERS 7.5 m/hr
5042Andrew COCKCROFT1:44:40.41:44:21.9Sen19Male46 7.5 m/hr
Page 1 of 5 (227 items)
   

fb